Aviation Digital Data Service (ADDS)

Output produced by METARs form (0920 UTC 17 October 2017)
found at http://www.aviationweather.gov/adds/metars/
 
KLUL 170915Z AUTO 35004KT 10SM CLR 09/09 A3020 RMK AO2 T00860086
KLUL 170855Z AUTO 36003KT 10SM CLR 09/09 A3020 RMK AO2 T00900089
KLUL 170835Z AUTO 36003KT 10SM CLR 10/09 A3020 RMK AO2 T00950086
KLUL 170815Z AUTO 36004KT 10SM CLR 09/09 A3020 RMK AO2 T00920091
KLUL 170755Z AUTO 36003KT 10SM CLR 09/09 A3020 RMK AO2 T00940093
KLUL 170735Z AUTO 00000KT 10SM CLR 09/09 A3020 RMK AO2 T00940092
KLUL 170715Z AUTO 35003KT 10SM CLR 10/09 A3021 RMK AO2 T00970090
KLUL 170655Z AUTO 36003KT 10SM CLR 10/09 A3021 RMK AO2 T00980091
KLUL 170635Z AUTO 35004KT 10SM CLR 10/09 A3021 RMK AO2 T00960093
KLUL 170615Z AUTO 34004KT 10SM CLR 10/10 A3021 RMK AO2 T00960095
KLUL 170555Z AUTO 34003KT 10SM CLR 10/09 A3021 RMK AO2 T01010085
KLUL 170535Z AUTO 34003KT 10SM CLR 11/08 A3022 RMK AO2 T01060080
KLUL 170515Z AUTO 35003KT 10SM CLR 11/08 A3022 RMK AO2 T01100078
KLUL 170455Z AUTO 34005KT 10SM CLR 11/08 A3023 RMK AO2 T01100079
KLUL 170435Z AUTO 34005KT 10SM CLR 11/08 A3023 RMK AO2 T01140076
KLUL 170415Z AUTO 35003KT 10SM CLR 12/08 A3023 RMK AO2 T01230075
KLUL 170355Z AUTO 35004KT 10SM CLR 13/07 A3023 RMK AO2 T01290072
KLUL 170335Z AUTO 35004KT 10SM CLR 13/07 A3024 RMK AO2 T01320072
KLUL 170315Z AUTO 01004KT 10SM CLR 14/07 A3023 RMK AO2 T01390071
KLUL 170255Z AUTO 35005KT 10SM CLR 14/07 A3023 RMK AO2 T01390072
KLUL 170235Z AUTO 36004KT 10SM CLR 14/07 A3022 RMK AO2 T01430073
KLUL 170215Z AUTO 01004KT 10SM CLR 15/08 A3022 RMK AO2 T01450075
KLUL 170155Z AUTO 35005KT 10SM CLR 15/07 A3021 RMK AO2 T01460074
KLUL 170135Z AUTO 36007KT 10SM CLR 16/07 A3021 RMK AO2 T01590070
KLUL 170115Z AUTO 36007KT 10SM CLR 16/08 A3020 RMK AO2 T01590075
KLUL 170055Z AUTO 01007KT 10SM CLR 16/07 A3020 RMK AO2 T01640073
KLUL 170035Z AUTO 01006KT 10SM CLR 16/07 A3019 RMK AO2 T01620074
KLUL 170015Z AUTO 01005KT 10SM CLR 17/07 A3018 RMK AO2 T01670074
KLUL 162355Z AUTO 36008KT 10SM CLR 17/07 A3016 RMK AO2 T01740074
KLUL 162335Z AUTO 01006KT 10SM CLR 18/08 A3015 RMK AO2 T01800076
KLUL 162315Z AUTO 36006KT 10SM CLR 19/08 A3015 RMK AO2 T01890078
KLUL 162255Z AUTO 36005KT 10SM CLR 19/08 A3014 RMK AO2 T01940078
KLUL 162235Z AUTO 01006KT 10SM CLR 20/07 A3014 RMK AO2 T02010073
KLUL 162215Z AUTO 01007KT 10SM CLR 21/07 A3013 RMK AO2 T02060067
KLUL 162155Z AUTO 02009KT 10SM CLR 21/06 A3013 RMK AO2 T02080063
KLUL 162135Z AUTO 01009G14KT 10SM CLR 22/07 A3012 RMK AO2 T02170073
KLUL 162115Z AUTO 36012G18KT 10SM CLR 21/07 A3012 RMK AO2 T02130067
KLUL 162055Z AUTO 35010G15KT 10SM CLR 22/07 A3012 RMK AO2 T02180073
KLUL 162035Z AUTO 34011G17KT 10SM CLR 22/07 A3013 RMK AO2 T02200069
KLUL 162015Z AUTO 35010G15KT 10SM CLR 22/07 A3012 RMK AO2 T02210068
KLUL 161955Z AUTO 01012G19KT 10SM CLR 22/06 A3013 RMK AO2 T02200061
KLUL 161935Z AUTO 36011G17KT 10SM CLR 22/06 A3014 RMK AO2 T02170060
KLUL 161915Z AUTO 01011G19KT 10SM CLR 22/06 A3014 RMK AO2 T02170055
KLUL 161835Z AUTO 01010KT 10SM CLR 21/06 A3016 RMK AO2 T02130059
KLUL 161815Z AUTO 01010G15KT 340V040 10SM CLR 21/07 A3018 RMK AO2 T02070067
KLUL 161755Z AUTO 35011G17KT 10SM CLR 21/07 A3019 RMK AO2 T02060065
KLUL 161735Z AUTO 36009G14KT 10SM CLR 20/07 A3020 RMK AO2 T02020071
KLUL 161715Z AUTO 35008KT 10SM CLR 20/07 A3021 RMK AO2 T01960070
KLUL 161655Z AUTO 36012KT 10SM CLR 19/07 A3022 RMK AO2 T01940071
KLUL 161635Z AUTO 36009G16KT 10SM CLR 19/07 A3023 RMK AO2 T01850073
KLUL 161615Z AUTO 35011KT 10SM CLR 18/07 A3022 RMK AO2 T01800072
KLUL 161555Z AUTO 36011G17KT 10SM CLR 18/08 A3023 RMK AO2 T01760075
KLUL 161535Z AUTO 02007KT 10SM CLR 17/07 A3024 RMK AO2 T01680071
KLUL 161515Z AUTO 36011G16KT 10SM CLR 16/07 A3024 RMK AO2 T01580073
KLUL 161455Z AUTO 36011G16KT 10SM CLR 15/08 A3024 RMK AO2 T01520075
KLUL 161435Z AUTO 01011G18KT 10SM CLR 15/08 A3024 RMK AO2 T01450078
KLUL 161415Z AUTO 02013G18KT 10SM CLR 14/08 A3024 RMK AO2 T01380083
KLUL 161355Z AUTO 01008KT 10SM CLR 14/09 A3023 RMK AO2 T01350088
KLUL 161335Z AUTO 02010G15KT 10SM CLR 13/10 A3022 RMK AO2 T01260095
KLUL 161315Z AUTO 02006G14KT 10SM CLR 13/10 A3021 RMK AO2 T01260101
KLUL 161255Z AUTO 01011G16KT 10SM CLR 13/11 A3020 RMK AO2 T01260107
KLUL 161235Z AUTO 01009KT 10SM SCT016 SCT022 13/11 A3020 RMK AO2 T01300113
KLUL 161215Z AUTO 01008G16KT 10SM BKN015 OVC021 13/12 A3019 RMK AO2 T01330122
KLUL 161155Z AUTO 01008KT 10SM OVC013 14/14 A3018 RMK AO2 T01360135
KLUL 161135Z AUTO 36006KT 10SM OVC011 14/14 A3018 RMK AO2 T01400140
KLUL 161115Z AUTO 35008KT 10SM OVC011 15/14 A3018 RMK AO2 T01450143
KLUL 161055Z AUTO 02009G15KT 10SM OVC011 15/15 A3016 RMK AO2 T01450145
KLUL 161035Z AUTO 36006G15KT 10SM OVC011 15/15 A3015 RMK AO2 T01480148
KLUL 161015Z AUTO 36008KT 10SM OVC011 15/15 A3014 RMK AO2 T01500150
KLUL 160955Z AUTO 36009KT 10SM BKN011 OVC017 15/15 A3014 RMK AO2 T01510151
KLUL 160935Z AUTO 01009G14KT 10SM BKN011 OVC017 15/15 A3014 RMK AO2 T01520152
KLUL 160915Z AUTO 35009G14KT 10SM OVC011 16/16 A3013 RMK AO2 T01550155
KLUL 160855Z AUTO 36009KT 10SM OVC011 16/16 A3012 RMK AO2 T01570157
KLUL 160835Z AUTO 35006KT 10SM OVC011 16/16 A3012 RMK AO2 T01610161
KLUL 160815Z AUTO 36010G15KT 10SM BKN013 OVC018 17/17 A3013 RMK AO2 T01650165
KLUL 160755Z AUTO 36011G15KT 10SM BKN013 OVC033 18/18 A3013 RMK AO2 T01750175
KLUL 160735Z AUTO 01009G15KT 10SM BKN013 BKN022 OVC033 18/18 A3013 RMK AO2 T01800179
KLUL 160715Z AUTO 01010G17KT 10SM BKN011 OVC014 19/19 A3014 RMK AO2 T01900190
KLUL 160655Z AUTO 36012G16KT 10SM OVC009 20/20 A3013 RMK AO2 T01950195
KLUL 160635Z AUTO 35009G16KT 10SM BKN009 BKN014 OVC018 20/20 A3012 RMK AO2 T02020202
KLUL 160615Z AUTO 36008KT 10SM BKN012 OVC020 21/21 A3011 RMK AO2 T02050205
KLUL 160555Z AUTO 36008KT 10SM SCT010 BKN018 OVC023 21/21 A3011 RMK AO2 T02070207
KLUL 160535Z AUTO 35011G16KT 10SM OVC010 21/21 A3011 RMK AO2 T02090209
KLUL 160515Z AUTO 35009G14KT 10SM OVC008 21/21 A3011 RMK AO2 T02130213
KLUL 160455Z AUTO 35009G15KT 10SM OVC010 22/22 A3011 RMK AO2 T02170217
KLUL 160435Z AUTO 34010KT 10SM BKN008 BKN013 OVC024 22/22 A3010 RMK AO2 T02230223
KLUL 160415Z AUTO 34011G15KT 10SM SCT007 BKN014 OVC021 23/23 A3010 RMK AO2 T02250225
KLUL 160355Z AUTO 31004KT 7SM SCT010 BKN021 OVC080 22/22 A3010 RMK AO2 T02230223
KLUL 160335Z AUTO 00000KT 7SM SCT050 SCT080 22/22 A3008 RMK AO2 T02200220
KLUL 160315Z AUTO 00000KT 10SM CLR 23/23 A3008 RMK AO2 T02270227
KLUL 160255Z AUTO 00000KT 10SM CLR 23/23 A3007 RMK AO2 T02250225
KLUL 160235Z AUTO 14004KT 10SM SCT075 23/23 A3006 RMK AO2 T02250225
KLUL 160215Z AUTO 00000KT 10SM CLR 23/23 A3006 RMK AO2 T02260226
KLUL 160155Z AUTO 00000KT 10SM CLR 23/23 A3006 RMK AO2 T02300230
KLUL 160135Z AUTO 00000KT 10SM CLR 23/23 A3007 RMK AO2 T02320232
KLUL 160115Z AUTO 00000KT 10SM CLR 24/24 A3007 RMK AO2 T02350235
KLUL 160055Z AUTO 00000KT 10SM CLR 24/24 A3007 RMK AO2 T02360236
KLUL 160035Z AUTO 15003KT 10SM CLR 24/24 A3006 RMK AO2 T02360236
KLUL 160015Z AUTO 11003KT 10SM CLR 24/24 A3005 RMK AO2 T02350235
KLUL 152355Z AUTO 16004KT 10SM CLR 25/25 A3004 RMK AO2 T02500248
KLUL 152335Z AUTO 00000KT 10SM CLR 25/25 A3004 RMK AO2 T02490249
KLUL 152315Z AUTO 00000KT 10SM CLR 25/24 A3004 RMK AO2 T02530244
KLUL 152255Z AUTO 00000KT 10SM CLR 26/25 A3003 RMK AO2 T02550245
KLUL 152235Z AUTO 13003KT 10SM CLR 26/24 A3003 RMK AO2 T02570239
KLUL 152215Z AUTO 05004KT 10SM CLR 26/24 A3004 RMK AO2 T02630240
KLUL 152155Z AUTO 12003KT 10SM CLR 26/24 A3003 RMK AO2 T02580240
KLUL 152135Z AUTO 10006KT 10SM CLR 26/24 A3002 RMK AO2 T02570242
KLUL 152115Z AUTO 08007KT 10SM SCT075 26/24 A3003 RMK AO2 T02600243
KLUL 152055Z AUTO 08008KT 10SM SCT026 26/24 A3004 RMK AO2 T02600241
KLUL 152035Z AUTO 07008KT 10SM SCT028 SCT037 BKN070 27/24 A3004 RMK AO2 T02700242
KLUL 152015Z AUTO 00000KT 10SM BKN070 BKN080 BKN090 29/21 A3004 RMK AO2 T02940213
KLUL 151955Z AUTO 25003KT 10SM SCT045 BKN075 OVC090 28/22 A3005 RMK AO2 T02830216
KLUL 151935Z AUTO 23003KT 10SM SCT047 SCT075 BKN090 29/23 A3006 RMK AO2 T02850226
KLUL 151915Z AUTO 28003KT 10SM SCT020 SCT037 28/23 A3006 RMK AO2 T02770232
KLUL 151855Z AUTO 26003KT 10SM SCT018 BKN037 BKN060 28/24 A3006 RMK AO2 T02790237
KLUL 151835Z AUTO 18003KT 10SM OVC018 27/24 A3007 RMK AO2 T02720239
KLUL 151815Z AUTO 19003KT 10SM OVC018 27/24 A3008 RMK AO2 T02680239
KLUL 151755Z AUTO 21004KT 10SM BKN018 BKN080 OVC120 27/24 A3009 RMK AO2 T02740239
KLUL 151735Z AUTO 00000KT 10SM SCT016 BKN034 BKN065 27/24 A3010 RMK AO2 T02710241
KLUL 151715Z AUTO 24003KT 10SM BKN016 OVC033 27/24 A3011 RMK AO2 T02700241
KLUL 151655Z AUTO 00000KT 10SM SCT016 BKN035 BKN050 27/24 A3012 RMK AO2 T02680240
KLUL 151635Z AUTO 00000KT 10SM SCT050 BKN085 26/25 A3013 RMK AO2 T02590245
KLUL 151615Z AUTO 00000KT 10SM SCT046 SCT050 OVC085 25/25 A3013 RMK AO2 T02520246
KLUL 151555Z AUTO 00000KT 10SM SCT019 SCT030 OVC045 25/25 A3014 RMK AO2 T02470245
KLUL 151535Z AUTO 00000KT 10SM SCT015 BKN035 OVC065 25/24 A3014 RMK AO2 T02470244
KLUL 151515Z AUTO 00000KT 10SM SCT015 BKN043 OVC075 24/24 A3014 RMK AO2 T02440244
KLUL 151455Z AUTO 00000KT 10SM SCT044 OVC060 24/24 A3013 RMK AO2 T02400240
KLUL 151435Z AUTO 00000KT 10SM SCT016 OVC070 24/24 A3013 RMK AO2 T02360236
KLUL 151415Z AUTO 12003KT 10SM SCT018 SCT041 OVC070 24/24 A3012 RMK AO2 T02350235
KLUL 151355Z AUTO 00000KT 10SM SCT018 SCT041 OVC070 23/23 A3011 RMK AO2 T02320232
KLUL 151335Z AUTO 12004KT 10SM SCT018 OVC070 23/23 A3011 RMK AO2 T02310231
KLUL 151315Z AUTO 11003KT 10SM BKN070 23/23 A3010 RMK AO2 T02300230
KLUL 151255Z AUTO 00000KT 10SM SCT017 OVC070 22/22 A3009 RMK AO2 T02230223
KLUL 151235Z AUTO 00000KT 10SM SCT017 SCT070 21/21 A3009 RMK AO2 T02070207
KLUL 151215Z AUTO 00000KT 10SM CLR 21/21 A3009 RMK AO2 T02050205
KLUL 151155Z AUTO 00000KT 10SM CLR 21/21 A3009 RMK AO2 T02050205
KLUL 151135Z AUTO 00000KT 10SM CLR 21/21 A3009 RMK AO2 T02060206
KLUL 151115Z AUTO 00000KT 10SM SCT048 SCT065 21/21 A3008 RMK AO2 T02100210
KLUL 151055Z AUTO 00000KT 10SM SCT048 BKN065 21/21 A3008 RMK AO2 T02120212
KLUL 151035Z AUTO 00000KT 10SM SCT055 BKN065 22/22 A3007 RMK AO2 T02200220
KLUL 151015Z AUTO 00000KT 10SM OVC065 22/22 A3006 RMK AO2 T02200220
KLUL 150955Z AUTO 11003KT 10SM BKN065 22/22 A3006 RMK AO2 T02170217
KLUL 150935Z AUTO 11003KT 10SM BKN065 22/22 A3006 RMK AO2 T02180218
KLUL 150915Z AUTO 00000KT 10SM BKN065 22/22 A3006 RMK AO2 T02220222
KLUL 150855Z AUTO 11003KT 10SM SCT055 BKN065 22/22 A3006 RMK AO2 T02230223
KLUL 150835Z AUTO 00000KT 10SM BKN065 OVC070 22/22 A3006 RMK AO2 T02210221
KLUL 150815Z AUTO 00000KT 10SM SCT055 OVC065 22/22 A3006 RMK AO2 T02190219
KLUL 150755Z AUTO 00000KT 10SM OVC065 22/22 A3006 RMK AO2 T02170217
KLUL 150735Z AUTO 00000KT 10SM OVC065 22/22 A3007 RMK AO2 T02180218
KLUL 150715Z AUTO 00000KT 10SM SCT040 OVC065 22/22 A3007 RMK AO2 T02200220
KLUL 150655Z AUTO 00000KT 10SM SCT042 OVC065 22/22 A3008 RMK AO2 T02200220
KLUL 150635Z AUTO 00000KT 10SM SCT042 SCT050 OVC065 22/22 A3008 RMK AO2 T02180218
KLUL 150615Z AUTO 00000KT 10SM BKN044 BKN050 OVC065 22/22 A3008 RMK AO2 T02180218
KLUL 150555Z AUTO 00000KT 10SM BKN046 BKN055 OVC065 22/22 A3009 RMK AO2 T02160216
KLUL 150535Z AUTO 00000KT 10SM BKN046 OVC055 22/22 A3009 RMK AO2 T02150215
KLUL 150515Z AUTO 00000KT 10SM SCT048 SCT055 OVC065 21/21 A3009 RMK AO2 T02120212
KLUL 150455Z AUTO 00000KT 10SM SCT065 21/21 A3009 RMK AO2 T02090209
KLUL 150435Z AUTO 00000KT 10SM SCT048 22/22 A3010 RMK AO2 T02150215
KLUL 150415Z AUTO 00000KT 10SM SCT050 SCT065 23/23 A3010 RMK AO2 T02300230
KLUL 150355Z AUTO 00000KT 10SM SCT042 BKN060 23/23 A3010 RMK AO2 T02260226
KLUL 150335Z AUTO 13003KT 10SM SCT044 OVC060 23/23 A3011 RMK AO2 T02300230
KLUL 150315Z AUTO 00000KT 10SM BKN060 23/23 A3011 RMK AO2 T02300228
KLUL 150255Z AUTO 00000KT 10SM SCT060 22/22 A3011 RMK AO2 T02200220
KLUL 150235Z AUTO 00000KT 10SM CLR 22/22 A3010 RMK AO2 T02210221
KLUL 150215Z AUTO 00000KT 10SM SCT042 22/22 A3010 RMK AO2 T02200220
KLUL 150155Z AUTO 00000KT 10SM SCT042 22/22 A3009 RMK AO2 T02210221
KLUL 150135Z AUTO 00000KT 10SM SCT044 23/23 A3009 RMK AO2 T02250225
KLUL 150115Z AUTO 00000KT 10SM CLR 23/23 A3008 RMK AO2 T02250225
KLUL 150055Z AUTO 00000KT 10SM SCT046 25/21 A3008 RMK AO2 T02470212
KLUL 150035Z AUTO 00000KT 10SM CLR 25/20 A3007 RMK AO2 T02520200
KLUL 150015Z AUTO 00000KT 10SM SCT050 26/20 A3006 RMK AO2 T02560195
KLUL 142355Z AUTO 11003KT 10SM SCT050 BKN055 26/20 A3006 RMK AO2 T02560195
KLUL 142335Z AUTO 12004KT 10SM SCT050 27/19 A3006 RMK AO2 T02650191
KLUL 142315Z AUTO 13003KT 10SM SCT050 27/19 A3006 RMK AO2 T02740189
KLUL 142255Z AUTO 13005KT 10SM SCT050 29/18 A3006 RMK AO2 T02850184
KLUL 142235Z AUTO 13005KT 10SM CLR 29/18 A3006 RMK AO2 T02890183
KLUL 142215Z AUTO 13007KT 10SM SCT050 30/18 A3006 RMK AO2 T02950180
KLUL 142155Z AUTO 14005KT 10SM SCT050 29/18 A3006 RMK AO2 T02880183
KLUL 142135Z AUTO 14006KT 10SM SCT048 30/18 A3006 RMK AO2 T03010180
KLUL 142115Z AUTO 12010KT 10SM SCT048 30/18 A3006 RMK AO2 T03040179
KLUL 142055Z AUTO 12008KT 10SM SCT050 30/18 A3006 RMK AO2 T03030179
KLUL 142035Z AUTO 13007KT 10SM SCT050 31/18 A3006 RMK AO2 T03050181
KLUL 142015Z AUTO 10009KT 10SM SCT050 30/18 A3006 RMK AO2 T03030180
KLUL 141955Z AUTO 08007KT 10SM SCT048 30/18 A3007 RMK AO2 T02990181
KLUL 141935Z AUTO 10007KT 10SM SCT048 31/18 A3008 RMK AO2 T03070184
KLUL 141915Z AUTO 09004KT 10SM SCT047 30/18 A3009 RMK AO2 T03030183
KLUL 141855Z AUTO 10007KT 10SM SCT047 30/19 A3009 RMK AO2 T03020185
KLUL 141835Z AUTO 10007KT 10SM CLR 30/18 A3011 RMK AO2 T03000183
KLUL 141815Z AUTO 09006G19KT 10SM CLR 30/18 A3012 RMK AO2 T03040182
KLUL 141755Z AUTO 12006KT 10SM CLR 30/18 A3013 RMK AO2 T02980179
KLUL 141735Z AUTO 10007KT 10SM CLR 30/18 A3014 RMK AO2 T03000179
KLUL 141715Z AUTO 15005KT 10SM CLR 29/18 A3015 RMK AO2 T02940181
KLUL 141655Z AUTO 16005KT 10SM CLR 29/19 A3016 RMK AO2 T02920189
KLUL 141635Z AUTO 12004KT 10SM CLR 29/19 A3017 RMK AO2 T02890194
KLUL 141615Z AUTO 09005KT 10SM CLR 28/20 A3017 RMK AO2 T02840195
KLUL 141555Z AUTO 09004KT 10SM CLR 28/20 A3017 RMK AO2 T02790196
KLUL 141535Z AUTO 13004KT 10SM CLR 27/20 A3017 RMK AO2 T02700200
KLUL 141515Z AUTO 12004KT 10SM CLR 26/20 A3018 RMK AO2 T02630202
KLUL 141455Z AUTO 12005KT 10SM CLR 26/21 A3018 RMK AO2 T02550208
KLUL 141435Z AUTO 12005KT 10SM CLR 25/22 A3018 RMK AO2 T02460218
KLUL 141415Z AUTO 12006KT 10SM CLR 23/23 A3018 RMK AO2 T02340227
KLUL 141355Z AUTO 12005KT 10SM SCT002 23/23 A3017 RMK AO2 T02250225
KLUL 141335Z AUTO 11005KT 2SM OVC002 22/22 A3017 RMK AO2 T02150215
KLUL 141315Z AUTO 11004KT 1SM OVC002 21/21 A3016 RMK AO2 T02100210
KLUL 141255Z AUTO 00000KT 5SM SCT004 20/20 A3015 RMK AO2 T01950195
KLUL 141235Z AUTO 00000KT 7SM CLR 19/19 A3014 RMK AO2 T01850185
KLUL 141215Z AUTO 00000KT 2SM CLR 18/18 A3014 RMK AO2 T01810181
KLUL 141155Z AUTO 00000KT 5SM CLR 19/19 A3014 RMK AO2 T01860186
KLUL 141135Z AUTO 00000KT 4SM CLR 19/19 A3014 RMK AO2 T01870187
KLUL 141115Z AUTO 00000KT 5SM CLR 19/19 A3013 RMK AO2 T01880188
KLUL 141055Z AUTO 00000KT 7SM CLR 19/19 A3013 RMK AO2 T01890189
KLUL 141035Z AUTO 00000KT 7SM CLR 20/20 A3012 RMK AO2 T01950195
KLUL 141015Z AUTO 00000KT 7SM CLR 19/19 A3011 RMK AO2 T01910191
KLUL 140955Z AUTO 00000KT 5SM CLR 19/19 A3011 RMK AO2 T01920192
KLUL 140935Z AUTO 00000KT 5SM CLR 20/20 A3011 RMK AO2 T01950195